BKPR Airport Information

Runway Information
Runway 17 Length 8165 ft width 148 ft
Elevation 1789 ft Threshold 0 ft Heading 176
Runway 35 Length 8165 ft Width 148 ft
Elevation 1786 ft Threshold 0 ft Heading 356
Airport Frequencies
Type APP Name APP Frequency 118.775 MHZ
Type GND Name GND Frequency 118 MHZ
Type RMP Name RAMP OPR Frequency 136.8 MHZ
Type TWR Name TWR Frequency 120.125 MHZ
Airport Navaids
Airport Weather Information & NOTAM
ADDS - METARS form results

(0930 UTC 16 November 2018)
Data provider http://aviationweather.gov/metar/data/
 
METAR text: BKPR 160930Z 36008KT 9999 SCT050 08/00 Q1025 NOSIG RMK 17010095
Conditions at: BKPR (PRISHTINA , CS) observed 0930 UTC 16 November 2018
Temperature: 8.0°C (46°F)
Dewpoint: 0.0°C (32°F) [RH = 57%]
Pressure (altimeter): 30.27 inches Hg (1025.0 mb)
Winds: from the N (360 degrees) at 9 MPH (8 knots; 4.1 m/s)
Visibility: 6 or more miles (10+ km)
Ceiling: at least 12,000 feet AGL
Clouds: scattered clouds at 5000 feet AGL
Weather: no significant weather observed at this time

METAR text: BKPR 160900Z 02007KT 9999 SCT050 07/01 Q1025 NOSIG RMK 17010095
Conditions at: BKPR (PRISHTINA , CS) observed 0900 UTC 16 November 2018
Temperature: 7.0°C (45°F)
Dewpoint: 1.0°C (34°F) [RH = 66%]
Pressure (altimeter): 30.27 inches Hg (1025.0 mb)
Winds: from the NNE (20 degrees) at 8 MPH (7 knots; 3.6 m/s)
Visibility: 6 or more miles (10+ km)
Ceiling: at least 12,000 feet AGL
Clouds: scattered clouds at 5000 feet AGL
Weather: no significant weather observed at this time

Forecast for: BKPR (PRISHTINA , CS)
Text: TAF BKPR 160530Z 1606/1706 01008KT 9999 SCT070
Forecast period: 0600 UTC 16 November 2018 to 0600 UTC 17 November 2018
Forecast type: FROM: standard forecast or significant change
Winds: from the N (10 degrees) at 9 MPH (8 knots; 4.1 m/s)
Visibility: 6 or more miles 10+ km)
Ceiling: at least 12,000 feet AGL
Clouds: scattered clouds at 7000 feet AGL
Weather: no significant weather forecast for this period